ENGM/OSL METAR and TAF weather

Enter ICAO airport designator
Station Type Date Time Source
ENGM METAR 2022/11/30 11:20 UTC NOAA

ENGM 301120Z 35002KT 9999 -DZ FEW006 OVC013 01/00 Q1031 TEMPO BKN008


Station Type Date Time Source
ENGM Decoded METAR 2022/11/30 11:20 UTC NOAA

Oslo / Gardermoen, Norway (ENGM) 60-12N 011-05E 204M
Nov 30, 2022 - 06:20 AM EST / 2022.11.30 1120 UTC
Wind: from the N (350 degrees) at 2 MPH (2 KT):0
Visibility: greater than 7 mile(s):0
Sky conditions: overcast
Weather: light drizzle
Temperature: 33 F (1 C)
Dew Point: 32 F (0 C)
Relative Humidity: 93%
Pressure (altimeter): 30.45 in. Hg (1031 hPa)
ob: ENGM 301120Z 35002KT 9999 -DZ FEW006 OVC013 01/00 Q1031 TEMPO BKN008
cycle: 11

Station Type Date Time Source
ENGM TAF 2022/11/30 06:57 UTC NOAA

TAF ENGM 300500Z 3006/0106 02005KT 9999 -SN BKN012
TEMPO 3006/3012 4000 -SN BR OVC006
BECMG 3012/3014 OVC006
TEMPO 3014/3024 2000 BR BKN003
TEMPO 0100/0106 BKN012

Example: see airport list